createdAt,value
2019-03-31T00:02:05.374Z,23.13
2019-03-31T00:04:31.937Z,20.93
2019-03-31T00:06:58.526Z,23.20
2019-03-31T00:09:25.082Z,19.97
2019-03-31T00:11:51.658Z,19.83
2019-03-31T00:14:18.213Z,23.13
2019-03-31T00:16:44.812Z,21.37
2019-03-31T00:19:11.414Z,23.13
2019-03-31T00:21:37.992Z,22.87
2019-03-31T00:24:04.555Z,23.33
2019-03-31T00:26:31.134Z,21.93
2019-03-31T00:28:57.698Z,18.83
2019-03-31T00:31:24.267Z,22.43
2019-03-31T00:33:50.882Z,20.93
2019-03-31T00:36:17.495Z,20.80
2019-03-31T00:38:44.067Z,19.73
2019-03-31T00:41:10.635Z,18.07
2019-03-31T00:43:37.216Z,20.73
2019-03-31T00:46:03.770Z,18.37
2019-03-31T00:48:30.346Z,19.73
2019-03-31T00:50:56.970Z,17.53
2019-03-31T00:53:23.536Z,18.80
2019-03-31T00:55:50.119Z,19.83
2019-03-31T00:58:16.926Z,18.93
2019-03-31T01:00:46.065Z,18.23
2019-03-31T01:03:13.176Z,19.17
2019-03-31T01:05:40.822Z,19.23
2019-03-31T01:08:07.399Z,19.37
2019-03-31T01:10:34.074Z,21.33
2019-03-31T01:13:00.734Z,21.40
2019-03-31T01:15:28.626Z,20.03
2019-03-31T01:17:55.290Z,21.30
2019-03-31T01:20:21.925Z,23.27
2019-03-31T01:22:48.554Z,19.50
2019-03-31T01:25:15.946Z,19.77
2019-03-31T01:27:42.511Z,20.37
2019-03-31T01:30:11.267Z,19.50
2019-03-31T01:32:38.233Z,21.67
2019-03-31T01:35:05.535Z,17.77
2019-03-31T01:37:32.386Z,20.87
2019-03-31T01:39:59.141Z,18.83
2019-03-31T01:42:25.790Z,18.73
2019-03-31T01:44:52.478Z,19.30
2019-03-31T01:47:19.542Z,18.83
2019-03-31T01:49:46.102Z,19.77
2019-03-31T01:52:12.782Z,19.80
2019-03-31T01:54:39.342Z,18.70
2019-03-31T01:57:05.939Z,20.87
2019-03-31T01:59:32.494Z,22.57
2019-03-31T02:02:04.495Z,19.90
2019-03-31T02:04:27.543Z,21.77
2019-03-31T02:06:54.119Z,23.43
2019-03-31T02:09:20.773Z,22.10
2019-03-31T02:11:47.354Z,23.10
2019-03-31T02:14:13.938Z,20.23
2019-03-31T02:16:40.494Z,21.00
2019-03-31T02:19:07.066Z,19.57
2019-03-31T02:21:33.630Z,23.50
2019-03-31T02:24:00.206Z,20.60
2019-03-31T02:26:26.769Z,20.97
2019-03-31T02:28:53.351Z,20.80
2019-03-31T02:31:19.915Z,23.10
2019-03-31T02:34:01.903Z,20.17
2019-03-31T02:36:28.544Z,20.33
2019-03-31T02:38:55.124Z,19.53
2019-03-31T02:41:21.687Z,22.67
2019-03-31T02:43:48.271Z,21.60
2019-03-31T02:46:15.188Z,19.33
2019-03-31T02:48:41.764Z,21.27
2019-03-31T02:51:08.576Z,20.63
2019-03-31T02:53:35.154Z,19.40
2019-03-31T02:56:02.843Z,21.57
2019-03-31T02:58:29.728Z,21.47
2019-03-31T03:00:57.082Z,19.73
2019-03-31T03:03:24.664Z,20.70
2019-03-31T03:05:53.119Z,19.90
2019-03-31T03:08:19.907Z,20.97
2019-03-31T03:10:46.783Z,20.67
2019-03-31T03:13:13.482Z,20.37
2019-03-31T03:15:57.334Z,23.43
2019-03-31T03:18:24.207Z,21.80
2019-03-31T03:20:51.162Z,21.80
2019-03-31T03:23:17.815Z,26.87
2019-03-31T03:25:55.915Z,24.80
2019-03-31T03:28:12.848Z,23.67
2019-03-31T03:30:39.531Z,19.93
2019-03-31T03:33:17.322Z,17.57
2019-03-31T03:35:34.824Z,21.20
2019-03-31T03:38:01.383Z,20.93
2019-03-31T03:40:27.959Z,19.77
2019-03-31T03:42:54.524Z,20.50
2019-03-31T03:45:21.104Z,19.67
2019-03-31T03:47:47.665Z,18.13
2019-03-31T03:50:14.228Z,19.17
2019-03-31T03:52:41.132Z,19.07
2019-03-31T03:55:08.007Z,20.80
2019-03-31T03:57:34.661Z,20.20
2019-03-31T04:00:01.222Z,21.77
2019-03-31T04:02:27.799Z,17.77
2019-03-31T04:04:54.622Z,18.20
2019-03-31T04:07:21.222Z,18.90
2019-03-31T04:09:47.784Z,20.73
2019-03-31T04:12:14.383Z,19.63
2019-03-31T04:14:41.020Z,19.83
2019-03-31T04:17:07.598Z,19.17
2019-03-31T04:19:34.158Z,19.13
2019-03-31T04:22:00.781Z,18.60
2019-03-31T04:24:27.402Z,18.27
2019-03-31T04:26:53.976Z,21.37
2019-03-31T04:29:20.540Z,21.40
2019-03-31T04:31:47.123Z,21.33
2019-03-31T04:34:13.792Z,18.80
2019-03-31T04:36:40.612Z,20.70
2019-03-31T04:39:07.484Z,20.23
2019-03-31T04:41:34.139Z,18.27
2019-03-31T04:44:00.711Z,19.33
2019-03-31T04:46:27.270Z,19.83
2019-03-31T04:48:53.894Z,19.17
2019-03-31T04:51:20.455Z,18.60
2019-03-31T04:53:47.034Z,21.00
2019-03-31T04:56:13.660Z,20.23
2019-03-31T04:58:40.238Z,22.37
2019-03-31T05:01:07.158Z,20.67
2019-03-31T05:03:33.722Z,21.27
2019-03-31T05:06:00.283Z,20.57
2019-03-31T05:08:26.938Z,18.57
2019-03-31T05:10:53.502Z,21.43
2019-03-31T05:13:20.373Z,19.83
2019-03-31T05:15:46.945Z,19.70
2019-03-31T05:18:13.557Z,20.50
2019-03-31T05:20:40.126Z,18.87
2019-03-31T05:23:06.694Z,21.47
2019-03-31T05:25:33.778Z,18.00
2019-03-31T05:28:00.342Z,20.43
2019-03-31T05:30:26.931Z,19.30
2019-03-31T05:32:53.491Z,21.63
2019-03-31T05:35:20.070Z,21.43
2019-03-31T05:37:51.297Z,19.80
2019-03-31T05:40:15.106Z,20.37
2019-03-31T05:42:41.671Z,18.47
2019-03-31T05:45:08.325Z,20.00
2019-03-31T05:47:34.911Z,20.23
2019-03-31T05:50:01.671Z,19.53
2019-03-31T05:52:28.242Z,20.70
2019-03-31T05:54:54.831Z,19.70
2019-03-31T05:57:21.423Z,19.90
2019-03-31T05:59:47.978Z,20.20
2019-03-31T06:02:14.563Z,20.13
2019-03-31T06:04:59.255Z,21.57
2019-03-31T06:07:25.835Z,20.60
2019-03-31T06:09:52.415Z,20.33
2019-03-31T06:12:19.008Z,19.77
2019-03-31T06:14:45.566Z,19.07
2019-03-31T06:17:12.147Z,20.73
2019-03-31T06:19:38.706Z,18.77
2019-03-31T06:22:05.502Z,22.70
2019-03-31T06:24:32.068Z,20.23
2019-03-31T06:26:58.752Z,22.80
2019-03-31T06:29:25.644Z,20.20
2019-03-31T06:31:52.347Z,35.40
2019-03-31T06:34:19.010Z,29.17
2019-03-31T06:36:45.683Z,20.90
2019-03-31T06:39:12.277Z,19.83
2019-03-31T06:41:38.829Z,19.77
2019-03-31T06:44:05.501Z,18.87
2019-03-31T06:46:32.146Z,18.67
2019-03-31T06:48:58.722Z,18.83
2019-03-31T06:51:25.287Z,21.60
2019-03-31T06:53:51.939Z,19.27
2019-03-31T06:56:18.559Z,18.57
2019-03-31T06:58:45.196Z,19.43
2019-03-31T07:01:11.977Z,19.83
2019-03-31T07:03:38.678Z,22.23
2019-03-31T07:06:05.295Z,20.63
2019-03-31T07:08:31.930Z,21.57
2019-03-31T07:10:58.537Z,21.10
2019-03-31T07:13:25.145Z,20.13
2019-03-31T07:15:51.778Z,22.80
2019-03-31T07:18:18.389Z,18.73
2019-03-31T07:20:44.993Z,19.07
2019-03-31T07:23:11.586Z,19.23
2019-03-31T07:25:38.223Z,19.87
2019-03-31T07:28:04.850Z,19.50
2019-03-31T07:30:31.478Z,22.37
2019-03-31T07:32:58.095Z,20.20
2019-03-31T07:35:24.718Z,21.80
2019-03-31T07:37:56.076Z,19.87
2019-03-31T07:40:22.871Z,20.63
2019-03-31T07:42:51.306Z,20.10
2019-03-31T07:45:18.300Z,21.37
2019-03-31T07:47:44.881Z,50.97
2019-03-31T07:50:15.510Z,24.47
2019-03-31T07:52:42.086Z,161.43
2019-03-31T07:55:08.766Z,106.03
2019-03-31T07:57:35.354Z,24.60
2019-03-31T08:00:03.431Z,21.97
2019-03-31T08:02:30.121Z,24.13
2019-03-31T08:04:56.689Z,22.70
2019-03-31T08:07:23.282Z,22.03
2019-03-31T08:09:49.846Z,21.30
2019-03-31T08:12:16.454Z,25.17
2019-03-31T08:14:43.019Z,26.00
2019-03-31T08:17:09.635Z,23.97
2019-03-31T08:19:36.223Z,24.43
2019-03-31T08:22:02.917Z,24.70
2019-03-31T08:24:31.396Z,24.90
2019-03-31T08:26:58.256Z,27.40
2019-03-31T08:29:25.168Z,29.50
2019-03-31T08:31:51.798Z,30.07
2019-03-31T08:34:18.396Z,28.07
2019-03-31T08:36:44.954Z,30.53
2019-03-31T08:39:11.558Z,30.13
2019-03-31T08:41:38.113Z,34.53
2019-03-31T08:44:04.709Z,47.93
2019-03-31T08:46:31.271Z,33.63
2019-03-31T08:48:57.841Z,32.03
2019-03-31T08:51:24.415Z,37.23
2019-03-31T08:53:51.081Z,38.63
2019-03-31T08:56:17.743Z,40.03
2019-03-31T08:58:44.322Z,45.30
2019-03-31T09:01:12.873Z,46.43
2019-03-31T09:03:39.453Z,49.20
2019-03-31T09:06:06.074Z,50.03
2019-03-31T09:08:32.663Z,54.27
2019-03-31T09:10:59.226Z,58.80
2019-03-31T09:13:25.819Z,54.13
2019-03-31T09:15:52.432Z,56.23
2019-03-31T09:18:19.015Z,53.47
2019-03-31T09:20:45.650Z,57.53
2019-03-31T09:23:12.441Z,56.33
2019-03-31T09:25:39.031Z,62.83
2019-03-31T09:28:05.611Z,67.30
2019-03-31T09:30:32.576Z,77.70
2019-03-31T09:32:59.215Z,76.43
2019-03-31T09:35:25.881Z,69.13
2019-03-31T09:37:52.450Z,68.37
2019-03-31T09:40:19.181Z,64.37
2019-03-31T09:42:45.757Z,69.73
2019-03-31T09:45:12.678Z,67.00
2019-03-31T09:47:39.294Z,69.03
2019-03-31T09:50:06.733Z,68.43
2019-03-31T09:52:33.406Z,69.83
2019-03-31T09:54:59.970Z,64.83
2019-03-31T09:57:26.563Z,62.57
2019-03-31T09:59:53.131Z,65.27
2019-03-31T10:02:20.047Z,62.13
2019-03-31T10:04:46.997Z,61.20
2019-03-31T10:07:14.034Z,66.43
2019-03-31T10:09:40.594Z,63.73
2019-03-31T10:12:07.159Z,63.93
2019-03-31T10:14:33.734Z,59.70
2019-03-31T10:17:00.305Z,62.67
2019-03-31T10:19:26.887Z,66.17
2019-03-31T10:21:53.511Z,64.73
2019-03-31T10:24:20.193Z,61.07
2019-03-31T10:26:47.012Z,62.70
2019-03-31T10:29:13.747Z,68.53
2019-03-31T10:31:40.403Z,67.67
2019-03-31T10:34:07.034Z,63.93
2019-03-31T10:36:43.815Z,60.87
2019-03-31T10:39:04.983Z,64.53
2019-03-31T10:41:31.607Z,62.80
2019-03-31T10:43:58.239Z,62.30
2019-03-31T10:46:24.854Z,65.47
2019-03-31T10:48:51.698Z,68.63
2019-03-31T10:51:18.307Z,61.53
2019-03-31T10:53:44.975Z,58.30
2019-03-31T10:56:11.636Z,62.20
2019-03-31T10:58:38.251Z,59.20
2019-03-31T11:01:04.990Z,58.83
2019-03-31T11:03:33.192Z,56.27
2019-03-31T11:05:59.950Z,60.17
2019-03-31T11:08:26.824Z,59.07
2019-03-31T11:10:53.453Z,61.13
2019-03-31T11:13:20.065Z,62.43
2019-03-31T11:15:46.702Z,61.23
2019-03-31T11:18:13.319Z,58.57
2019-03-31T11:20:39.950Z,62.20
2019-03-31T11:23:17.510Z,56.03
2019-03-31T11:25:44.527Z,60.50
2019-03-31T11:28:11.150Z,61.03
2019-03-31T11:30:37.762Z,62.37
2019-03-31T11:33:07.320Z,57.40
2019-03-31T11:35:32.925Z,55.87
2019-03-31T11:37:59.627Z,55.90
2019-03-31T11:40:26.243Z,56.57
2019-03-31T11:42:52.978Z,54.90
2019-03-31T11:45:19.539Z,57.37
2019-03-31T11:47:46.406Z,58.10
2019-03-31T11:50:13.298Z,60.03
2019-03-31T11:52:39.882Z,50.63
2019-03-31T11:55:07.243Z,54.67
2019-03-31T11:57:33.842Z,52.97
2019-03-31T12:00:00.452Z,54.23
2019-03-31T12:02:27.861Z,52.53
2019-03-31T12:04:54.849Z,55.97
2019-03-31T12:07:27.723Z,54.03
2019-03-31T12:09:49.959Z,48.20
2019-03-31T12:12:16.587Z,56.60
2019-03-31T12:14:43.161Z,51.77
2019-03-31T12:17:09.735Z,48.07
2019-03-31T12:19:36.310Z,49.83
2019-03-31T12:22:02.874Z,50.33
2019-03-31T12:24:29.463Z,47.53
2019-03-31T12:26:56.280Z,48.87
2019-03-31T12:29:23.110Z,45.37
2019-03-31T12:31:50.158Z,49.87
2019-03-31T12:34:16.795Z,46.77
2019-03-31T12:36:43.570Z,43.73
2019-03-31T12:39:10.155Z,45.57
2019-03-31T12:41:37.118Z,46.63
2019-03-31T12:44:03.733Z,42.67
2019-03-31T12:46:30.702Z,39.97
2019-03-31T12:48:57.325Z,48.63
2019-03-31T12:51:23.963Z,39.60
2019-03-31T12:53:51.207Z,38.63
2019-03-31T12:56:18.383Z,36.03
2019-03-31T12:58:44.938Z,36.43
2019-03-31T13:01:11.659Z,34.23
2019-03-31T13:03:38.344Z,32.97
2019-03-31T13:06:05.234Z,32.73
2019-03-31T13:08:31.876Z,34.83
2019-03-31T13:10:58.490Z,33.63
2019-03-31T13:13:25.118Z,29.13
2019-03-31T13:15:51.738Z,32.23
2019-03-31T13:18:18.427Z,30.13
2019-03-31T13:20:45.044Z,30.57
2019-03-31T13:23:11.626Z,31.83
2019-03-31T13:25:38.447Z,28.67
2019-03-31T13:28:05.805Z,29.43
2019-03-31T13:30:32.711Z,32.30
2019-03-31T13:32:59.315Z,28.37
2019-03-31T13:35:25.986Z,29.87
2019-03-31T13:37:52.558Z,26.20
2019-03-31T13:40:19.133Z,27.03
2019-03-31T13:42:45.743Z,33.97
2019-03-31T13:45:12.465Z,26.80
2019-03-31T13:47:39.130Z,26.27
2019-03-31T13:50:07.630Z,25.30
2019-03-31T13:52:34.190Z,24.40
2019-03-31T13:55:00.778Z,23.23
2019-03-31T13:57:28.015Z,23.83
2019-03-31T13:59:56.182Z,22.33
2019-03-31T14:02:22.807Z,23.83
2019-03-31T14:04:51.692Z,20.30
2019-03-31T14:07:17.956Z,24.67
2019-03-31T14:09:44.546Z,22.13
2019-03-31T14:12:11.155Z,22.40
2019-03-31T14:14:37.714Z,21.17
2019-03-31T14:17:04.511Z,21.93
2019-03-31T14:19:31.327Z,19.17
2019-03-31T14:21:57.964Z,19.93
2019-03-31T14:24:26.950Z,19.53
2019-03-31T14:26:53.118Z,20.37
2019-03-31T14:29:19.676Z,19.90
2019-03-31T14:31:47.199Z,19.13
2019-03-31T14:34:13.818Z,17.07
2019-03-31T14:36:40.582Z,20.60
2019-03-31T14:39:07.567Z,25.23
2019-03-31T14:41:34.263Z,17.90
2019-03-31T14:44:00.822Z,19.73
2019-03-31T14:46:27.387Z,19.17
2019-03-31T14:48:53.986Z,19.60
2019-03-31T14:51:20.554Z,18.47
2019-03-31T14:53:47.450Z,18.93
2019-03-31T14:56:14.055Z,17.80
2019-03-31T14:58:40.634Z,16.13
2019-03-31T15:01:07.290Z,19.07
2019-03-31T15:03:33.871Z,15.87
2019-03-31T15:06:00.439Z,23.87
2019-03-31T15:08:27.019Z,20.57
2019-03-31T15:10:53.777Z,16.67
2019-03-31T15:13:20.927Z,16.87
2019-03-31T15:15:47.562Z,17.73
2019-03-31T15:18:14.215Z,16.97
2019-03-31T15:20:40.785Z,15.70
2019-03-31T15:23:07.374Z,15.97
2019-03-31T15:25:34.135Z,17.10
2019-03-31T15:28:01.082Z,16.45
2019-03-31T15:30:27.667Z,14.83
2019-03-31T15:32:54.226Z,15.40
2019-03-31T15:35:20.811Z,15.10
2019-03-31T15:37:47.466Z,14.40
2019-03-31T15:40:14.050Z,15.70
2019-03-31T15:42:40.617Z,15.68
2019-03-31T15:45:07.289Z,13.48
2019-03-31T15:47:33.874Z,14.15
2019-03-31T15:50:00.564Z,18.00
2019-03-31T15:52:27.218Z,14.58
2019-03-31T15:54:54.218Z,14.07
2019-03-31T15:57:20.822Z,14.50
2019-03-31T15:59:50.501Z,13.85
2019-03-31T16:02:17.406Z,12.13
2019-03-31T16:04:44.018Z,12.77
2019-03-31T16:07:10.906Z,14.83
2019-03-31T16:09:37.471Z,32.10
2019-03-31T16:12:04.149Z,16.67
2019-03-31T16:14:30.858Z,18.10
2019-03-31T16:16:57.495Z,16.57
2019-03-31T16:19:24.079Z,16.97
2019-03-31T16:21:50.685Z,16.43
2019-03-31T16:24:19.206Z,19.60
2019-03-31T16:26:46.135Z,17.00
2019-03-31T16:29:13.019Z,16.70
2019-03-31T16:31:39.727Z,18.90
2019-03-31T16:34:06.374Z,15.57
2019-03-31T16:36:33.021Z,13.60
2019-03-31T16:38:59.609Z,12.73
2019-03-31T16:41:26.167Z,17.50
2019-03-31T16:43:52.742Z,12.63
2019-03-31T16:46:19.306Z,14.10
2019-03-31T16:48:46.170Z,13.63
2019-03-31T16:51:12.914Z,13.70
2019-03-31T16:53:39.492Z,12.73
2019-03-31T16:56:06.154Z,11.63
2019-03-31T16:58:32.742Z,13.73
2019-03-31T17:00:59.298Z,14.70
2019-03-31T17:03:25.903Z,13.73
2019-03-31T17:05:52.457Z,12.37
2019-03-31T17:08:19.063Z,13.43
2019-03-31T17:10:45.705Z,11.87
2019-03-31T17:13:12.418Z,12.03
2019-03-31T17:15:39.297Z,14.23
2019-03-31T17:18:05.930Z,13.43
2019-03-31T17:20:32.508Z,13.37
2019-03-31T17:22:59.172Z,11.13
2019-03-31T17:25:25.759Z,11.10
2019-03-31T17:27:52.327Z,10.60
2019-03-31T17:30:19.010Z,13.67
2019-03-31T17:32:45.574Z,13.83
2019-03-31T17:35:12.155Z,13.03
2019-03-31T17:37:38.886Z,15.13
2019-03-31T17:40:06.799Z,14.00
2019-03-31T17:42:33.959Z,11.57
2019-03-31T17:45:00.795Z,13.30
2019-03-31T17:47:27.467Z,14.23
2019-03-31T17:49:54.157Z,16.53
2019-03-31T17:52:20.791Z,10.40
2019-03-31T17:54:47.402Z,25.37
2019-03-31T17:57:14.039Z,22.47
2019-03-31T17:59:41.002Z,12.57
2019-03-31T18:02:07.741Z,13.10
2019-03-31T18:04:34.376Z,14.23
2019-03-31T18:07:01.023Z,12.33
2019-03-31T18:09:28.071Z,15.20
2019-03-31T18:11:54.706Z,14.87
2019-03-31T18:14:21.328Z,14.13
2019-03-31T18:16:47.949Z,11.97
2019-03-31T18:19:14.563Z,12.13
2019-03-31T18:21:41.205Z,12.60
2019-03-31T18:24:07.802Z,13.50
2019-03-31T18:26:34.420Z,15.00
2019-03-31T18:29:01.191Z,19.27
2019-03-31T18:31:28.042Z,12.90
2019-03-31T18:33:54.702Z,12.23
2019-03-31T18:36:35.594Z,11.53
2019-03-31T18:38:49.803Z,14.90
2019-03-31T18:41:16.586Z,11.07
2019-03-31T18:43:51.425Z,15.87
2019-03-31T18:46:11.673Z,15.37
2019-03-31T18:48:38.498Z,19.37
2019-03-31T18:51:05.247Z,13.90
2019-03-31T18:53:48.735Z,11.73
2019-03-31T18:56:17.230Z,10.00
2019-03-31T18:58:48.367Z,11.87
2019-03-31T19:01:22.711Z,10.27
2019-03-31T19:04:03.162Z,9.60
2019-03-31T19:06:34.687Z,10.03
2019-03-31T19:09:12.322Z,9.80
2019-03-31T19:11:40.815Z,9.97
2019-03-31T19:14:11.984Z,9.60
2019-03-31T19:16:46.639Z,11.73
2019-03-31T19:19:24.130Z,10.37
2019-03-31T19:22:09.675Z,10.07
2019-03-31T19:24:38.181Z,10.87
2019-03-31T19:27:21.622Z,17.03
2019-03-31T19:32:47.273Z,10.07
2019-03-31T19:35:21.837Z,11.10
2019-03-31T19:37:53.039Z,9.83
2019-03-31T19:40:33.854Z,9.80
2019-03-31T19:43:17.579Z,10.37
2019-03-31T19:48:54.038Z,8.97
2019-03-31T19:51:28.474Z,10.80
2019-03-31T19:54:13.806Z,10.43
2019-03-31T19:56:42.283Z,13.33
2019-03-31T19:59:29.078Z,10.77
2019-03-31T20:01:57.628Z,9.57
2019-03-31T20:04:34.755Z,9.77
2019-03-31T20:07:19.678Z,12.13
2019-03-31T20:10:03.382Z,8.47
2019-03-31T20:12:32.130Z,11.47
2019-03-31T20:15:06.709Z,8.03
2019-03-31T20:17:52.042Z,10.10
2019-03-31T20:20:20.554Z,8.70
2019-03-31T20:23:06.054Z,10.30
2019-03-31T20:25:51.294Z,10.57
2019-03-31T20:28:28.804Z,8.10
2019-03-31T20:30:59.910Z,9.10
2019-03-31T20:33:40.655Z,7.57
2019-03-31T20:36:21.151Z,7.13
2019-03-31T20:38:55.735Z,7.53
2019-03-31T20:41:39.231Z,9.57
2019-03-31T20:44:05.790Z,8.67
2019-03-31T20:46:32.342Z,8.97
2019-03-31T20:48:58.917Z,7.77
2019-03-31T20:51:25.498Z,42.27
2019-03-31T20:53:52.174Z,11.43
2019-03-31T20:56:18.858Z,8.33
2019-03-31T20:58:45.598Z,8.07
2019-03-31T21:01:12.266Z,7.37
2019-03-31T21:03:38.819Z,8.90
2019-03-31T21:06:05.404Z,9.57
2019-03-31T21:08:31.963Z,8.27
2019-03-31T21:10:58.535Z,9.33
2019-03-31T21:13:25.095Z,7.10
2019-03-31T21:15:51.699Z,10.00
2019-03-31T21:18:18.366Z,8.63
2019-03-31T21:20:44.922Z,7.97
2019-03-31T21:23:11.531Z,10.57
2019-03-31T21:25:38.096Z,7.93
2019-03-31T21:28:04.755Z,63.80
2019-03-31T21:30:31.587Z,16.57
2019-03-31T21:32:58.150Z,10.50
2019-03-31T21:35:24.734Z,8.07
2019-03-31T21:37:51.295Z,11.07
2019-03-31T21:40:17.922Z,7.10
2019-03-31T21:42:44.498Z,10.20
2019-03-31T21:45:11.261Z,6.30
2019-03-31T21:47:37.954Z,7.63
2019-03-31T21:50:05.013Z,6.47
2019-03-31T21:52:51.489Z,8.27
2019-03-31T21:55:18.146Z,8.83
2019-03-31T21:57:44.706Z,8.27
2019-03-31T22:00:11.687Z,9.03
2019-03-31T22:02:38.346Z,8.27
2019-03-31T22:05:06.027Z,10.30
2019-03-31T22:07:32.594Z,9.40
2019-03-31T22:10:19.043Z,10.10
2019-03-31T22:12:45.606Z,11.37
2019-03-31T22:15:12.166Z,8.70
2019-03-31T22:17:39.003Z,7.93
2019-03-31T22:20:06.318Z,9.03
2019-03-31T22:22:33.155Z,7.90
2019-03-31T22:24:59.740Z,12.13
2019-03-31T22:27:26.305Z,8.83
2019-03-31T22:29:52.875Z,10.80
2019-03-31T22:32:19.455Z,10.30
2019-03-31T22:34:46.019Z,12.93
2019-03-31T22:37:32.458Z,10.97
2019-03-31T22:39:59.029Z,9.63
2019-03-31T22:42:25.618Z,9.13
2019-03-31T22:44:52.183Z,7.50
2019-03-31T22:47:38.671Z,8.50
2019-03-31T22:50:05.415Z,8.07
2019-03-31T22:52:32.316Z,8.77
2019-03-31T22:54:59.170Z,9.53
2019-03-31T22:57:25.755Z,9.10
2019-03-31T22:59:52.308Z,11.00
2019-03-31T23:02:18.887Z,10.33
2019-03-31T23:04:45.457Z,9.83
2019-03-31T23:07:12.139Z,12.93
2019-03-31T23:09:38.694Z,12.40
2019-03-31T23:12:05.291Z,8.00
2019-03-31T23:14:31.859Z,9.90
2019-03-31T23:16:58.501Z,9.43
2019-03-31T23:19:25.295Z,13.00
2019-03-31T23:21:51.936Z,10.63
2019-03-31T23:24:18.585Z,9.30
2019-03-31T23:26:45.177Z,11.20
2019-03-31T23:29:12.101Z,10.47
2019-03-31T23:31:38.875Z,9.93
2019-03-31T23:34:05.747Z,9.73
2019-03-31T23:36:32.396Z,11.47
2019-03-31T23:38:58.980Z,12.10
2019-03-31T23:41:25.543Z,8.37
2019-03-31T23:43:52.130Z,8.07
2019-03-31T23:46:18.681Z,10.00
2019-03-31T23:48:45.279Z,12.77
2019-03-31T23:51:11.846Z,10.83
2019-03-31T23:53:38.418Z,10.47
2019-03-31T23:56:04.978Z,9.47
2019-03-31T23:58:31.558Z,11.13
